createdAt,value
2019-03-01T00:02:24.091Z,14.00
2019-03-01T00:05:00.671Z,11.40
2019-03-01T00:10:58.655Z,11.70
2019-03-01T00:17:04.187Z,12.30
2019-03-01T00:22:38.140Z,12.20
2019-03-01T00:28:32.414Z,12.10
2019-03-01T00:34:53.005Z,12.20
2019-03-01T00:46:55.184Z,12.80
2019-03-01T00:49:27.096Z,13.00
2019-03-01T00:59:12.327Z,13.10
2019-03-01T01:04:32.311Z,13.30
2019-03-01T01:09:59.983Z,13.00
2019-03-01T01:12:33.943Z,12.80
2019-03-01T01:15:23.089Z,9.80
2019-03-01T01:18:00.311Z,12.50
2019-03-01T01:23:51.021Z,12.60
2019-03-01T01:26:26.335Z,12.40
2019-03-01T01:29:26.045Z,12.50
2019-03-01T01:32:00.564Z,12.70
2019-03-01T01:34:32.652Z,12.60
2019-03-01T01:37:23.700Z,12.40
2019-03-01T01:39:56.300Z,12.60
2019-03-01T01:42:29.558Z,12.80
2019-03-01T01:45:00.977Z,12.70
2019-03-01T01:47:32.950Z,12.70
2019-03-01T01:50:06.251Z,12.90
2019-03-01T01:52:41.524Z,13.00
2019-03-01T02:02:19.941Z,12.80
2019-03-01T02:04:53.933Z,12.80
2019-03-01T02:10:18.722Z,12.80
2019-03-01T02:19:55.106Z,12.90
2019-03-01T02:22:32.692Z,13.00
2019-03-01T02:25:03.318Z,13.00
2019-03-01T02:28:22.706Z,13.10
2019-03-01T02:30:55.357Z,13.10
2019-03-01T02:33:30.106Z,12.80
2019-03-01T02:36:00.765Z,12.90
2019-03-01T02:38:33.193Z,13.10
2019-03-01T02:41:06.788Z,13.10
2019-03-01T02:43:40.595Z,13.20
2019-03-01T02:46:12.677Z,13.20
2019-03-01T02:49:20.652Z,13.20
2019-03-01T02:51:55.430Z,13.20
2019-03-01T02:57:02.893Z,13.10
2019-03-01T02:59:33.842Z,13.20
2019-03-01T03:02:52.541Z,13.20
2019-03-01T03:05:26.523Z,13.20
2019-03-01T03:10:48.588Z,13.20
2019-03-01T03:16:13.397Z,13.10
2019-03-01T03:18:47.034Z,13.10
2019-03-01T03:21:29.821Z,13.00
2019-03-01T03:24:02.977Z,13.00
2019-03-01T03:27:16.437Z,12.80
2019-03-01T03:29:53.863Z,12.90
2019-03-01T03:32:25.660Z,12.90
2019-03-01T03:35:44.855Z,12.90
2019-03-01T03:38:19.270Z,13.00
2019-03-01T03:43:38.752Z,13.00
2019-03-01T03:49:03.865Z,13.00
2019-03-01T03:51:33.101Z,13.00
2019-03-01T03:54:11.980Z,12.70
2019-03-01T03:56:44.364Z,11.60
2019-03-01T03:59:44.190Z,11.80
2019-03-01T04:02:14.812Z,12.30
2019-03-01T04:04:51.163Z,12.20
2019-03-01T04:07:21.765Z,12.10
2019-03-01T04:09:54.443Z,12.20
2019-03-01T04:19:12.786Z,12.60
2019-03-01T04:21:52.759Z,12.50
2019-03-01T04:24:49.905Z,12.50
2019-03-01T04:27:25.671Z,12.50
2019-03-01T04:29:58.654Z,12.60
2019-03-01T04:33:20.467Z,12.60
2019-03-01T04:35:53.192Z,12.60
2019-03-01T04:38:26.340Z,12.30
2019-03-01T04:40:59.106Z,12.00
2019-03-01T04:43:31.122Z,11.60
2019-03-01T04:46:34.862Z,11.20
2019-03-01T04:49:07.047Z,11.10
2019-03-01T04:54:33.573Z,11.20
2019-03-01T04:57:05.800Z,11.40
2019-03-01T05:00:18.918Z,11.60
2019-03-01T05:02:54.854Z,11.60
2019-03-01T05:08:22.294Z,11.60
2019-03-01T05:10:52.570Z,11.80
2019-03-01T05:13:34.046Z,12.00
2019-03-01T05:16:09.782Z,12.20
2019-03-01T05:18:43.742Z,12.30
2019-03-01T05:21:15.909Z,12.40
2019-03-01T05:23:49.742Z,12.50
2019-03-01T05:30:01.043Z,12.60
2019-03-01T05:32:31.496Z,12.40
2019-03-01T05:35:02.880Z,12.40
2019-03-01T05:37:38.429Z,12.40
2019-03-01T05:40:17.944Z,10.50
2019-03-01T05:42:48.311Z,12.50
2019-03-01T05:45:32.726Z,12.30
2019-03-01T05:48:04.005Z,12.40
2019-03-01T05:50:40.131Z,12.60
2019-03-01T05:53:16.592Z,12.50
2019-03-01T05:55:48.349Z,12.40
2019-03-01T05:58:34.792Z,12.50
2019-03-01T06:01:12.676Z,12.60
2019-03-01T06:03:56.870Z,12.50
2019-03-01T06:06:46.766Z,12.40
2019-03-01T06:10:02.374Z,12.40
2019-03-01T06:12:59.154Z,12.50
2019-03-01T06:15:43.236Z,12.50
2019-03-01T06:18:40.612Z,12.30
2019-03-01T06:21:48.587Z,12.20
2019-03-01T06:24:40.893Z,11.90
2019-03-01T06:27:23.902Z,11.50
2019-03-01T06:30:02.804Z,11.70
2019-03-01T06:33:02.501Z,11.50
2019-03-01T06:35:42.645Z,11.60
2019-03-01T06:38:31.173Z,11.50
2019-03-01T06:41:09.284Z,11.50
2019-03-01T06:44:19.782Z,11.50
2019-03-01T06:47:13.339Z,11.40
2019-03-01T06:50:02.106Z,11.60
2019-03-01T06:52:45.361Z,12.00
2019-03-01T06:55:26.149Z,12.30
2019-03-01T06:58:12.046Z,12.40
2019-03-01T07:00:50.226Z,12.50
2019-03-01T07:03:19.581Z,12.30
2019-03-01T07:05:49.505Z,12.30
2019-03-01T07:08:23.966Z,12.20
2019-03-01T07:10:56.396Z,12.30
2019-03-01T07:13:28.847Z,12.10
2019-03-01T07:16:04.106Z,12.00
2019-03-01T07:18:34.506Z,12.00
2019-03-01T07:21:10.573Z,12.00
2019-03-01T07:23:44.880Z,12.00
2019-03-01T07:26:15.468Z,12.10
2019-03-01T07:28:47.317Z,12.00
2019-03-01T07:31:20.698Z,12.00
2019-03-01T07:33:57.985Z,12.00
2019-03-01T07:36:22.102Z,12.00
2019-03-01T07:38:55.429Z,11.90
2019-03-01T07:41:26.792Z,11.90
2019-03-01T07:43:59.609Z,11.90
2019-03-01T07:46:29.124Z,11.90
2019-03-01T07:49:02.648Z,12.00
2019-03-01T07:51:36.723Z,12.00
2019-03-01T07:54:09.936Z,12.30
2019-03-01T07:56:47.218Z,12.20
2019-03-01T07:59:19.341Z,12.40
2019-03-01T08:01:56.213Z,12.60
2019-03-01T08:04:28.736Z,12.60
2019-03-01T08:06:59.515Z,12.30
2019-03-01T08:09:31.400Z,12.40
2019-03-01T08:12:03.601Z,12.20
2019-03-01T08:14:34.500Z,12.00
2019-03-01T08:17:06.603Z,12.00
2019-03-01T08:19:45.637Z,12.10
2019-03-01T08:22:20.765Z,12.10
2019-03-01T08:24:57.511Z,12.30
2019-03-01T08:27:27.989Z,12.30
2019-03-01T08:30:00.618Z,11.60
2019-03-01T08:32:31.923Z,11.70
2019-03-01T08:35:05.233Z,11.90
2019-03-01T08:37:39.854Z,12.10
2019-03-01T08:40:18.788Z,12.20
2019-03-01T08:42:53.050Z,12.80
2019-03-01T08:45:26.120Z,12.40
2019-03-01T08:47:55.524Z,12.30
2019-03-01T08:50:34.904Z,12.30
2019-03-01T08:53:06.589Z,12.20
2019-03-01T08:55:38.887Z,11.90
2019-03-01T08:58:07.685Z,11.80
2019-03-01T09:00:42.621Z,11.80
2019-03-01T09:03:22.374Z,11.70
2019-03-01T09:05:51.858Z,11.40
2019-03-01T09:08:21.352Z,11.40
2019-03-01T09:10:50.464Z,11.10
2019-03-01T09:13:19.468Z,11.20
2019-03-01T09:15:52.750Z,11.10
2019-03-01T09:18:27.220Z,11.00
2019-03-01T09:21:06.177Z,11.00
2019-03-01T09:23:43.782Z,13.40
2019-03-01T09:26:22.355Z,11.10
2019-03-01T09:28:48.195Z,11.20
2019-03-01T09:31:17.841Z,10.90
2019-03-01T09:33:48.021Z,10.90
2019-03-01T09:36:21.484Z,10.80
2019-03-01T09:38:51.453Z,10.90
2019-03-01T09:41:26.329Z,10.90
2019-03-01T09:44:03.104Z,10.60
2019-03-01T09:46:31.582Z,10.80
2019-03-01T09:49:05.502Z,10.90
2019-03-01T09:51:43.513Z,11.00
2019-03-01T09:54:17.923Z,11.20
2019-03-01T09:56:48.237Z,11.40
2019-03-01T09:59:39.486Z,11.20
2019-03-01T10:02:18.315Z,11.50
2019-03-01T10:04:42.602Z,11.70
2019-03-01T10:07:12.765Z,11.70
2019-03-01T10:09:48.249Z,11.90
2019-03-01T10:12:21.315Z,12.10
2019-03-01T10:14:51.550Z,12.20
2019-03-01T10:17:23.783Z,12.10
2019-03-01T10:20:01.461Z,12.10
2019-03-01T10:22:35.094Z,11.90
2019-03-01T10:25:08.342Z,11.20
2019-03-01T10:27:37.660Z,11.00
2019-03-01T10:30:14.406Z,11.20
2019-03-01T10:32:51.066Z,11.30
2019-03-01T10:35:21.094Z,11.20
2019-03-01T10:37:50.677Z,11.10
2019-03-01T10:40:31.100Z,11.00
2019-03-01T10:42:56.189Z,11.10
2019-03-01T10:45:36.042Z,11.20
2019-03-01T10:48:16.433Z,11.30
2019-03-01T10:50:50.925Z,11.40
2019-03-01T10:53:20.009Z,11.50
2019-03-01T10:55:50.217Z,11.70
2019-03-01T10:58:23.488Z,11.70
2019-03-01T11:01:01.784Z,11.40
2019-03-01T11:03:33.923Z,11.30
2019-03-01T11:06:40.335Z,11.20
2019-03-01T11:09:10.806Z,11.20
2019-03-01T11:11:50.342Z,11.40
2019-03-01T11:14:18.418Z,11.30
2019-03-01T11:17:38.442Z,10.60
2019-03-01T11:20:10.689Z,10.70
2019-03-01T11:23:12.744Z,10.60
2019-03-01T11:25:51.727Z,10.60
2019-03-01T11:29:03.029Z,11.00
2019-03-01T11:31:38.151Z,11.30
2019-03-01T11:34:11.720Z,10.90
2019-03-01T11:36:45.269Z,11.00
2019-03-01T11:39:52.734Z,11.20
2019-03-01T11:42:23.126Z,11.20
2019-03-01T11:45:37.654Z,11.30
2019-03-01T11:48:01.635Z,11.10
2019-03-01T11:51:14.924Z,10.80
2019-03-01T11:53:47.339Z,11.00
2019-03-01T11:56:53.522Z,11.40
2019-03-01T11:59:29.106Z,9.10
2019-03-01T12:02:40.220Z,11.30
2019-03-01T12:05:17.244Z,11.50
2019-03-01T12:08:08.184Z,11.60
2019-03-01T12:10:40.093Z,11.70
2019-03-01T12:13:37.384Z,9.80
2019-03-01T12:16:07.327Z,11.60
2019-03-01T12:21:28.447Z,11.40
2019-03-01T12:24:51.605Z,11.70
2019-03-01T12:27:21.889Z,13.80
2019-03-01T12:30:26.026Z,11.10
2019-03-01T12:32:56.749Z,11.00
2019-03-01T12:36:05.191Z,11.40
2019-03-01T12:38:40.844Z,11.40
2019-03-01T12:41:59.372Z,11.20
2019-03-01T12:44:32.221Z,11.40
2019-03-01T12:53:49.330Z,11.20
2019-03-01T12:56:19.821Z,11.10
2019-03-01T12:59:25.204Z,13.00
2019-03-01T13:01:55.166Z,11.80
2019-03-01T13:04:54.517Z,11.80
2019-03-01T13:07:23.984Z,11.80
2019-03-01T13:10:29.453Z,11.80
2019-03-01T13:13:07.993Z,11.90
2019-03-01T13:16:26.643Z,12.20
2019-03-01T13:18:59.790Z,11.70
2019-03-01T13:21:32.656Z,11.70
2019-03-01T13:24:41.658Z,11.20
2019-03-01T13:27:14.100Z,10.80
2019-03-01T13:30:20.106Z,11.00
2019-03-01T13:32:52.229Z,12.90
2019-03-01T13:36:13.329Z,12.00
2019-03-01T13:38:44.383Z,10.70
2019-03-01T13:42:01.101Z,11.10
2019-03-01T13:44:39.845Z,10.80
2019-03-01T13:47:13.394Z,11.10
2019-03-01T13:49:46.148Z,10.90
2019-03-01T13:52:54.327Z,10.70
2019-03-01T13:55:25.201Z,10.50
2019-03-01T13:58:26.614Z,10.40
2019-03-01T14:00:59.315Z,10.60
2019-03-01T14:04:09.579Z,10.60
2019-03-01T14:06:55.782Z,10.90
2019-03-01T14:09:53.081Z,10.70
2019-03-01T14:12:37.293Z,11.00
2019-03-01T14:15:45.272Z,10.90
2019-03-01T14:18:17.422Z,10.50
2019-03-01T14:21:29.786Z,9.90
2019-03-01T14:23:59.326Z,10.70
2019-03-01T14:26:36.314Z,10.50
2019-03-01T14:29:12.796Z,10.60
2019-03-01T14:32:32.324Z,10.80
2019-03-01T14:35:03.946Z,10.50
2019-03-01T14:45:32.316Z,10.20
2019-03-01T14:48:05.187Z,10.50
2019-03-01T14:51:18.079Z,10.60
2019-03-01T14:53:57.667Z,10.40
2019-03-01T14:57:10.105Z,10.80
2019-03-01T14:59:47.918Z,10.30
2019-03-01T15:05:33.749Z,9.70
2019-03-01T15:08:07.725Z,9.90
2019-03-01T15:10:54.309Z,10.10
2019-03-01T15:14:13.732Z,10.20
2019-03-01T15:16:43.274Z,9.50
2019-03-01T15:19:54.055Z,9.40
2019-03-01T15:22:24.595Z,9.60
2019-03-01T15:24:57.190Z,9.50
2019-03-01T15:27:33.640Z,9.40
2019-03-01T15:30:49.184Z,9.40
2019-03-01T15:33:20.313Z,9.30
2019-03-01T15:36:25.079Z,9.00
2019-03-01T15:39:03.020Z,9.00
2019-03-01T15:42:21.084Z,9.00
2019-03-01T15:44:52.090Z,9.20
2019-03-01T15:49:59.241Z,9.70
2019-03-01T15:52:33.422Z,9.60
2019-03-01T15:55:03.416Z,9.60
2019-03-01T15:57:49.082Z,9.50
2019-03-01T16:00:25.519Z,9.40
2019-03-01T16:03:01.586Z,9.00
2019-03-01T16:06:22.454Z,9.00
2019-03-01T16:08:57.689Z,9.10
2019-03-01T16:12:06.200Z,8.70
2019-03-01T16:14:37.480Z,8.60
2019-03-01T16:17:10.956Z,8.70
2019-03-01T16:19:46.959Z,8.60
2019-03-01T16:22:19.598Z,8.70
2019-03-01T16:38:49.055Z,9.00
2019-03-01T16:41:19.859Z,8.90
2019-03-01T16:44:11.846Z,8.60
2019-03-01T16:46:39.626Z,8.70
2019-03-01T16:49:10.908Z,9.00
2019-03-01T16:51:43.037Z,8.70
2019-03-01T16:54:16.703Z,8.70
2019-03-01T16:57:30.120Z,8.60
2019-03-01T17:00:04.776Z,8.90
2019-03-01T17:03:19.829Z,9.00
2019-03-01T17:09:20.192Z,9.00
2019-03-01T17:11:54.756Z,9.20
2019-03-01T17:14:52.148Z,9.40
2019-03-01T17:17:25.723Z,9.50
2019-03-01T17:20:28.967Z,9.30
2019-03-01T17:23:05.180Z,9.00
2019-03-01T17:32:18.567Z,9.60
2019-03-01T17:34:49.666Z,9.60
2019-03-01T17:38:07.016Z,9.50
2019-03-01T17:40:35.875Z,9.50
2019-03-01T17:43:06.767Z,9.50
2019-03-01T17:45:47.991Z,9.60
2019-03-01T17:48:22.206Z,9.60
2019-03-01T17:51:28.926Z,9.80
2019-03-01T17:53:59.494Z,9.20
2019-03-01T17:57:20.538Z,9.00
2019-03-01T17:59:55.731Z,9.10
2019-03-01T18:03:16.071Z,9.20
2019-03-01T18:05:54.101Z,9.30
2019-03-01T18:09:06.304Z,8.10
2019-03-01T18:11:45.551Z,9.30
2019-03-01T18:17:13.397Z,9.60
2019-03-01T18:19:46.239Z,9.20
2019-03-01T18:22:19.128Z,9.50
2019-03-01T18:24:50.049Z,9.70
2019-03-01T18:27:41.501Z,10.00
2019-03-01T18:30:23.091Z,10.00
2019-03-01T18:35:52.431Z,10.10
2019-03-01T18:38:23.872Z,9.80
2019-03-01T18:41:27.416Z,9.80
2019-03-01T18:43:58.997Z,9.20
2019-03-01T18:47:35.496Z,9.00
2019-03-01T18:49:08.031Z,9.80
2019-03-01T18:51:42.225Z,9.40
2019-03-01T18:54:44.053Z,10.40
2019-03-01T18:57:13.346Z,9.60
2019-03-01T18:59:43.135Z,9.70
2019-03-01T19:03:08.710Z,9.60
2019-03-01T19:05:42.241Z,9.70
2019-03-01T19:08:45.056Z,9.40
2019-03-01T19:11:16.085Z,9.70
2019-03-01T19:14:24.780Z,9.70
2019-03-01T19:16:55.696Z,9.80
2019-03-01T19:22:20.074Z,10.40
2019-03-01T19:25:03.123Z,10.50
2019-03-01T19:27:42.713Z,10.10
2019-03-01T19:30:15.375Z,9.80
2019-03-01T19:33:20.379Z,9.90
2019-03-01T19:35:50.333Z,10.10
2019-03-01T19:38:25.132Z,9.90
2019-03-01T19:40:56.529Z,10.00
2019-03-01T19:43:27.867Z,10.00
2019-03-01T19:46:00.778Z,10.00
2019-03-01T19:48:38.069Z,10.20
2019-03-01T19:51:12.404Z,10.00
2019-03-01T19:54:23.328Z,9.60
2019-03-01T19:57:01.474Z,9.50
2019-03-01T19:59:32.341Z,9.40
2019-03-01T20:02:40.034Z,9.60
2019-03-01T20:05:18.639Z,9.80
2019-03-01T20:08:13.813Z,9.60
2019-03-01T20:10:43.097Z,9.50
2019-03-01T20:13:16.395Z,9.20
2019-03-01T20:16:36.466Z,9.10
2019-03-01T20:19:10.294Z,9.30
2019-03-01T20:21:44.152Z,9.70
2019-03-01T20:24:23.554Z,9.90
2019-03-01T20:26:54.076Z,10.00
2019-03-01T20:30:04.333Z,10.20
2019-03-01T20:32:34.992Z,10.00
2019-03-01T20:38:04.521Z,9.40
2019-03-01T20:47:06.079Z,9.80
2019-03-01T20:49:39.325Z,9.90
2019-03-01T20:52:11.664Z,9.90
2019-03-01T20:55:14.442Z,10.00
2019-03-01T20:57:51.882Z,10.10
2019-03-01T21:00:26.119Z,12.80
2019-03-01T21:02:56.199Z,9.90
2019-03-01T21:05:30.419Z,10.00
2019-03-01T21:08:01.173Z,10.20
2019-03-01T21:10:32.011Z,10.50
2019-03-01T21:13:29.618Z,10.20
2019-03-01T21:16:00.225Z,10.10
2019-03-01T21:21:28.894Z,9.70
2019-03-01T21:24:46.670Z,9.60
2019-03-01T21:27:17.160Z,9.70
2019-03-01T21:30:32.782Z,9.70
2019-03-01T21:33:04.868Z,10.80
2019-03-01T21:36:07.189Z,9.60
2019-03-01T21:38:36.968Z,9.50
2019-03-01T21:41:09.811Z,9.50
2019-03-01T21:43:47.190Z,9.60
2019-03-01T21:46:21.041Z,9.70
2019-03-01T21:49:39.617Z,9.40
2019-03-01T21:52:13.669Z,9.50
2019-03-01T21:54:44.180Z,9.60
2019-03-01T21:58:06.633Z,9.70
2019-03-01T22:00:39.568Z,9.70
2019-03-01T22:03:59.277Z,9.80
2019-03-01T22:06:40.197Z,9.80
2019-03-01T22:09:03.010Z,9.90
2019-03-01T22:11:36.072Z,10.10
2019-03-01T22:14:19.413Z,10.20
2019-03-01T22:17:26.313Z,10.30
2019-03-01T22:20:08.719Z,10.40
2019-03-01T22:22:39.151Z,10.50
2019-03-01T22:25:51.683Z,10.60
2019-03-01T22:28:27.084Z,10.60
2019-03-01T22:33:43.104Z,10.50
2019-03-01T22:36:19.039Z,10.20
2019-03-01T22:38:51.969Z,10.00
2019-03-01T22:41:24.921Z,9.70
2019-03-01T22:47:41.867Z,9.80
2019-03-01T22:50:16.082Z,9.70
2019-03-01T22:52:48.468Z,9.90
2019-03-01T22:56:08.646Z,9.90
2019-03-01T22:58:44.685Z,10.00
2019-03-01T23:04:07.548Z,10.00
2019-03-01T23:06:43.962Z,10.20
2019-03-01T23:09:16.370Z,11.70
2019-03-01T23:11:53.014Z,10.60
2019-03-01T23:14:27.361Z,10.60
2019-03-01T23:16:59.808Z,10.60
2019-03-01T23:19:40.489Z,10.60
2019-03-01T23:22:14.362Z,10.70
2019-03-01T23:25:18.204Z,10.60
2019-03-01T23:27:51.603Z,10.60
2019-03-01T23:30:28.831Z,10.60
2019-03-01T23:33:01.142Z,10.70
2019-03-01T23:35:32.825Z,10.70
2019-03-01T23:38:03.603Z,13.00
2019-03-01T23:40:45.782Z,10.60
2019-03-01T23:43:15.361Z,10.50
2019-03-01T23:46:09.957Z,10.50
2019-03-01T23:48:48.966Z,10.50
2019-03-01T23:51:19.559Z,10.50
2019-03-01T23:53:49.621Z,10.40
2019-03-01T23:56:29.675Z,10.50
